Time;durP1;ratioP1;P1;durP2;ratioP2;P2;SDS_P1;SDS_P2;PMS_P1;PMS_P2;Temp;Humidity;BMP_temperature;BMP_pressure;BME280_temperature;BME280_humidity;BME280_pressure;Samples;Min_cycle;Max_cycle;Signal;HPM_P1;HPM_P2
2021/07/09 00:01:18;;;;;;;;;;;;;;;23.59;62.18;101459.09;1774844;79;21540;-63
2021/07/09 00:03:44;;;;;;;10.65;2.75;;;;;;;23.55;62.73;101456.74;1771875;79;20178;-62
2021/07/09 00:06:17;;;;;;;6.45;3.12;;;;;;;23.54;63.16;101465.91;1774615;79;21585;-63
2021/07/09 00:08:44;;;;;;;11.28;2.92;;;;;;;23.54;63.58;101476.86;1775278;79;21482;-65
2021/07/09 00:11:10;;;;;;;11.83;3.22;;;;;;;23.53;64.08;101472.38;1774980;79;21458;-62
2021/07/09 00:13:37;;;;;;;6.83;3.00;;;;;;;23.49;64.25;101474.98;1778426;79;21417;-62
2021/07/09 00:16:04;;;;;;;7.17;2.60;;;;;;;23.46;64.84;101467.40;1752023;80;20977;-63
2021/07/09 00:18:32;;;;;;;11.63;3.12;;;;;;;23.42;64.93;101471.37;1728336;81;20978;-62
2021/07/09 00:20:59;;;;;;;9.25;3.15;;;;;;;23.39;65.12;101466.15;1775728;79;21639;-63
2021/07/09 00:23:26;;;;;;;11.28;3.08;;;;;;;23.39;65.66;101470.73;1740129;81;20977;-63
2021/07/09 00:25:53;;;;;;;7.92;3.02;;;;;;;23.35;66.09;101475.59;1715762;82;21005;-63
2021/07/09 00:28:19;;;;;;;16.30;4.60;;;;;;;23.31;66.37;101469.96;1709790;82;21038;-63
2021/07/09 00:30:46;;;;;;;12.03;3.10;;;;;;;23.29;66.34;101462.38;1738854;81;21060;-63
2021/07/09 00:33:13;;;;;;;14.25;3.02;;;;;;;23.26;67.00;101480.40;1776577;79;21433;-63
2021/07/09 00:35:39;;;;;;;6.47;3.08;;;;;;;23.25;67.41;101478.63;1779279;79;21036;-64
2021/07/09 00:38:06;;;;;;;8.05;3.08;;;;;;;23.22;67.87;101475.65;1778577;79;21460;-62
2021/07/09 00:40:33;;;;;;;10.43;3.12;;;;;;;23.19;68.14;101474.49;1737032;81;21107;-63
2021/07/09 00:42:59;;;;;;;9.35;3.95;;;;;;;23.16;68.73;101477.47;1775301;79;21033;-62
2021/07/09 00:45:26;;;;;;;7.30;3.08;;;;;;;23.17;68.82;101475.11;1776589;79;21481;-62
2021/07/09 00:47:52;;;;;;;8.75;3.17;;;;;;;23.16;69.26;101476.09;1728826;81;21451;-63
2021/07/09 00:50:21;;;;;;;7.72;3.40;;;;;;;23.13;69.95;101471.77;1725106;81;20957;-63
2021/07/09 00:52:47;;;;;;;10.08;3.05;;;;;;;23.10;70.65;101480.20;1778848;79;20968;-63
2021/07/09 00:55:13;;;;;;;7.55;3.50;;;;;;;23.07;70.89;101466.73;1731780;81;20949;-65
2021/07/09 00:57:43;;;;;;;10.18;3.58;;;;;;;23.06;70.95;101466.88;1707546;82;20921;-63
2021/07/09 01:00:12;;;;;;;7.35;3.37;;;;;;;23.04;70.90;101468.34;1712973;82;21774;-62
2021/07/09 01:02:39;;;;;;;6.75;3.60;;;;;;;23.01;71.83;101467.22;1711517;82;20933;-63
2021/07/09 01:05:07;;;;;;;9.33;4.12;;;;;;;23.01;72.20;101468.11;1701223;82;20920;-62
2021/07/09 01:07:37;;;;;;;7.08;3.58;;;;;;;22.98;72.16;101468.31;1711754;82;21003;-61
2021/07/09 01:10:09;;;;;;;15.05;4.45;;;;;;;22.95;72.30;101461.72;1781486;79;21026;-64
2021/07/09 01:12:37;;;;;;;12.65;4.05;;;;;;;22.93;72.28;101464.22;1771963;79;21529;-62
2021/07/09 01:15:07;;;;;;;14.53;3.52;;;;;;;22.87;72.43;101459.56;1770981;79;21637;-64
2021/07/09 01:17:36;;;;;;;12.65;4.00;;;;;;;22.81;72.66;101468.25;1778093;79;20911;-62
2021/07/09 01:20:07;;;;;;;16.87;3.62;;;;;;;22.77;72.79;101459.91;1779934;79;20909;-64
2021/07/09 01:22:33;;;;;;;16.05;3.80;;;;;;;22.71;73.34;101465.34;1779964;79;23137;-64
2021/07/09 01:25:00;;;;;;;11.22;3.80;;;;;;;22.67;73.92;101464.34;1773926;79;21378;-63
2021/07/09 01:27:27;;;;;;;16.97;4.85;;;;;;;22.63;73.97;101465.53;1757012;79;20972;-62
2021/07/09 01:29:54;;;;;;;17.95;4.62;;;;;;;22.57;74.05;101461.42;1777730;79;20993;-62
2021/07/09 01:32:20;;;;;;;21.17;4.20;;;;;;;22.48;73.96;101464.34;1778443;79;21369;-64
2021/07/09 01:34:47;;;;;;;17.65;3.52;;;;;;;22.36;74.17;101459.27;1775791;79;21083;-61
2021/07/09 01:37:15;;;;;;;20.45;4.50;;;;;;;22.29;74.79;101465.67;1740270;80;21410;-61
2021/07/09 01:39:42;;;;;;;16.75;4.33;;;;;;;22.25;75.25;101472.83;1707258;82;20978;-58
2021/07/09 01:42:09;;;;;;;7.65;3.98;;;;;;;22.22;75.74;101468.97;1702044;83;20965;-58
2021/07/09 01:44:36;;;;;;;13.78;4.28;;;;;;;22.21;76.33;101469.44;1735253;81;21521;-57
2021/07/09 01:47:04;;;;;;;14.83;4.33;;;;;;;22.19;76.71;101465.95;1703310;83;21332;-57
2021/07/09 01:49:31;;;;;;;10.58;4.25;;;;;;;22.19;77.04;101471.41;1729724;81;21048;-59
2021/07/09 01:51:59;;;;;;;13.45;4.50;;;;;;;22.18;77.37;101473.77;1734302;80;20944;-57
2021/07/09 01:54:25;;;;;;;10.18;4.45;;;;;;;22.17;77.71;101472.02;1686936;82;21005;-58
2021/07/09 01:56:52;;;;;;;20.12;4.17;;;;;;;22.16;77.95;101468.91;1707407;82;20989;-57
2021/07/09 01:59:18;;;;;;;11.45;4.30;;;;;;;22.16;78.16;101471.64;1708506;82;21099;-57
2021/07/09 02:01:45;;;;;;;14.78;5.03;;;;;;;22.16;78.11;101474.37;1775518;79;20953;-58
2021/07/09 02:04:11;;;;;;;15.88;4.10;;;;;;;22.14;78.28;101473.62;1777060;79;20948;-57
2021/07/09 02:06:37;;;;;;;8.58;4.08;;;;;;;22.13;78.38;101482.80;1770199;79;21118;-57
2021/07/09 02:09:05;;;;;;;10.78;3.58;;;;;;;22.13;78.56;101486.41;1775055;79;21025;-57
2021/07/09 02:11:32;;;;;;;7.70;3.95;;;;;;;22.15;78.65;101480.82;1779968;79;21901;-57
2021/07/09 02:13:59;;;;;;;12.13;3.75;;;;;;;22.17;78.54;101475.64;1756952;80;21489;-58
2021/07/09 02:16:27;;;;;;;12.13;4.03;;;;;;;22.23;78.47;101472.96;1749681;80;20936;-57
2021/07/09 02:18:54;;;;;;;8.55;3.85;;;;;;;22.30;78.15;101472.88;1747308;80;21008;-57
2021/07/09 02:21:21;;;;;;;10.82;3.80;;;;;;;22.37;77.98;101479.25;1743514;80;21956;-62
2021/07/09 02:23:48;;;;;;;13.98;3.27;;;;;;;22.43;77.69;101484.25;1748687;80;21818;-57
2021/07/09 02:26:14;;;;;;;9.33;3.42;;;;;;;22.49;77.33;101483.85;1738778;80;21009;-58
2021/07/09 02:28:41;;;;;;;6.50;3.27;;;;;;;22.58;76.79;101483.16;1749109;80;21429;-58
2021/07/09 02:31:07;;;;;;;11.20;3.90;;;;;;;22.67;76.61;101473.39;1735505;80;20936;-57
2021/07/09 02:33:34;;;;;;;12.03;3.77;;;;;;;22.78;76.28;101484.88;1746841;80;21399;-58
2021/07/09 02:36:01;;;;;;;6.65;3.40;;;;;;;22.87;75.78;101485.54;1752790;80;21074;-58
2021/07/09 02:38:27;;;;;;;9.70;3.85;;;;;;;22.94;75.21;101480.48;1746962;80;21896;-58
2021/07/09 02:40:54;;;;;;;9.68;3.55;;;;;;;22.98;74.74;101483.87;1752003;80;20976;-59
2021/07/09 02:43:20;;;;;;;14.63;3.45;;;;;;;23.00;74.36;101481.88;1705085;82;20983;-58
2021/07/09 02:45:47;;;;;;;9.70;3.47;;;;;;;23.04;74.21;101484.75;1690580;83;21732;-57
2021/07/09 02:48:15;;;;;;;7.85;3.05;;;;;;;23.07;73.79;101494.09;1688318;83;21777;-57
2021/07/09 02:50:43;;;;;;;9.68;3.12;;;;;;;23.10;73.26;101491.14;1705699;82;20952;-57
2021/07/09 02:53:10;;;;;;;4.62;3.22;;;;;;;23.12;73.14;101486.43;1688673;83;21089;-61
2021/07/09 02:55:37;;;;;;;10.30;3.30;;;;;;;23.15;72.99;101495.76;1699068;82;21008;-57
2021/07/09 02:58:03;;;;;;;8.48;3.50;;;;;;;23.17;72.87;101486.94;1685187;83;21515;-57
2021/07/09 03:00:30;;;;;;;7.15;3.40;;;;;;;23.21;72.79;101491.69;1702092;82;21468;-59
2021/07/09 03:02:56;;;;;;;5.40;2.87;;;;;;;23.26;72.99;101491.34;1703637;82;21032;-58
2021/07/09 03:05:23;;;;;;;6.17;2.83;;;;;;;23.31;73.06;101493.21;1701606;82;21402;-58
2021/07/09 03:07:49;;;;;;;8.98;2.98;;;;;;;23.38;72.80;101491.77;1703017;82;22020;-58
2021/07/09 03:10:16;;;;;;;5.80;3.00;;;;;;;23.41;72.91;101483.31;1743884;80;21488;-58
2021/07/09 03:12:43;;;;;;;8.05;2.77;;;;;;;23.46;72.94;101487.92;1744566;80;21411;-58
2021/07/09 03:15:11;;;;;;;7.53;3.00;;;;;;;23.50;73.27;101483.09;1757648;79;21049;-58
2021/07/09 03:17:38;;;;;;;6.45;3.20;;;;;;;23.53;73.58;101484.22;1752028;79;20889;-58
2021/07/09 03:20:07;;;;;;;7.22;3.00;;;;;;;23.56;73.78;101484.48;1761508;79;20992;-58
2021/07/09 03:22:33;;;;;;;7.00;3.02;;;;;;;23.58;73.52;101486.59;1758211;79;21389;-58
2021/07/09 03:25:00;;;;;;;7.00;2.98;;;;;;;23.59;73.67;101486.97;1761625;79;21360;-58
2021/07/09 03:27:26;;;;;;;8.95;2.95;;;;;;;23.63;73.83;101487.09;1758910;79;21027;-59
2021/07/09 03:29:53;;;;;;;5.22;2.83;;;;;;;23.67;73.10;101484.48;1709544;82;21088;-58
2021/07/09 03:32:19;;;;;;;12.43;3.45;;;;;;;23.72;73.04;101487.72;1697200;83;20941;-58
2021/07/09 03:34:46;;;;;;;7.05;2.92;;;;;;;23.76;72.92;101486.99;1699196;83;21092;-58
2021/07/09 03:37:12;;;;;;;9.18;3.50;;;;;;;23.77;73.46;101484.63;1703986;82;21064;-58
2021/07/09 03:39:39;;;;;;;12.07;3.08;;;;;;;23.80;74.16;101486.26;1759036;79;21351;-59
2021/07/09 03:42:05;;;;;;;10.58;3.55;;;;;;;23.82;73.34;101482.91;1704348;82;20898;-58
2021/07/09 03:44:32;;;;;;;13.48;3.80;;;;;;;23.82;73.92;101482.91;1698263;83;20914;-58
2021/07/09 03:47:00;;;;;;;8.00;3.42;;;;;;;23.82;74.32;101485.64;1706277;82;21035;-58
2021/07/09 03:49:26;;;;;;;5.80;2.70;;;;;;;23.82;74.84;101504.80;1700089;82;21044;-58
2021/07/09 03:51:53;;;;;;;7.50;3.12;;;;;;;23.84;74.97;101489.12;1692001;83;21332;-58
2021/07/09 03:54:20;;;;;;;11.78;3.62;;;;;;;23.90;74.09;101498.20;1693435;84;21007;-58
2021/07/09 03:56:46;;;;;;;6.65;3.30;;;;;;;23.96;73.96;101498.22;1697449;83;21018;-58
2021/07/09 03:59:13;;;;;;;8.15;3.15;;;;;;;24.02;73.82;101500.00;1757474;79;20964;-58
2021/07/09 04:01:40;;;;;;;9.95;3.25;;;;;;;24.02;73.60;101490.41;1756340;79;21458;-58
2021/07/09 04:04:06;;;;;;;10.53;3.37;;;;;;;24.01;73.65;101492.78;1751111;79;21690;-59
2021/07/09 04:06:32;;;;;;;8.50;3.60;;;;;;;24.00;73.89;101485.53;1756100;79;20948;-61
2021/07/09 04:08:59;;;;;;;14.53;3.42;;;;;;;24.06;73.28;101491.53;1701760;82;20932;-59
2021/07/09 04:11:27;;;;;;;12.53;3.35;;;;;;;24.08;73.42;101486.80;1699461;83;21553;-59
2021/07/09 04:13:53;;;;;;;10.72;3.45;;;;;;;24.15;73.46;101492.14;1687909;83;21701;-59
2021/07/09 04:16:20;;;;;;;12.50;3.40;;;;;;;24.22;73.28;101490.66;1679485;83;21048;-59
2021/07/09 04:18:47;;;;;;;8.53;3.40;;;;;;;24.28;73.02;101489.27;1699219;82;20957;-58
2021/07/09 04:21:13;;;;;;;8.78;3.75;;;;;;;24.36;71.76;101496.86;1740243;80;21480;-58
2021/07/09 04:23:40;;;;;;;9.58;3.40;;;;;;;24.40;71.24;101492.87;1741649;80;21060;-58
2021/07/09 04:26:06;;;;;;;8.08;3.60;;;;;;;24.40;71.45;101491.02;1739090;80;21570;-58
2021/07/09 04:28:33;;;;;;;4.70;3.27;;;;;;;24.45;72.05;101492.87;1750704;80;21467;-59
2021/07/09 04:30:59;;;;;;;11.75;3.58;;;;;;;24.53;72.00;101497.72;1747520;80;20999;-58
2021/07/09 04:33:25;;;;;;;9.63;3.30;;;;;;;24.59;71.83;101501.31;1705468;82;21469;-58
2021/07/09 04:35:52;;;;;;;6.05;3.30;;;;;;;24.66;71.17;101495.34;1746559;80;21012;-58
2021/07/09 04:38:20;;;;;;;8.25;3.30;;;;;;;24.69;70.05;101500.05;1745592;80;20992;-58
2021/07/09 04:40:47;;;;;;;10.50;3.83;;;;;;;24.69;69.82;101495.08;1746513;80;21013;-58
2021/07/09 04:43:13;;;;;;;9.48;3.35;;;;;;;24.70;69.84;101494.08;1722176;82;20996;-59
2021/07/09 04:45:41;;;;;;;11.48;3.05;;;;;;;24.74;69.92;101507.38;1715857;81;21439;-58
2021/07/09 04:48:08;;;;;;;11.20;3.12;;;;;;;24.75;69.00;101504.19;1721924;81;20914;-58
2021/07/09 04:50:34;;;;;;;10.55;3.40;;;;;;;24.78;69.60;101494.33;1711978;81;21071;-58
2021/07/09 04:53:01;;;;;;;5.75;3.47;;;;;;;24.88;69.95;101500.80;1706574;82;20917;-58
2021/07/09 04:55:28;;;;;;;6.75;3.42;;;;;;;24.95;69.63;101501.12;1703292;82;21044;-60
2021/07/09 04:57:55;;;;;;;4.17;3.12;;;;;;;24.95;69.83;101501.64;1721872;82;21020;-59
2021/07/09 05:00:22;;;;;;;14.68;3.40;;;;;;;24.94;69.14;101499.38;1746103;80;21007;-58
2021/07/09 05:02:48;;;;;;;7.53;3.42;;;;;;;24.94;68.11;101491.67;1745955;81;21757;-59
2021/07/09 05:05:15;;;;;;;11.63;3.50;;;;;;;24.98;67.79;101491.77;1742776;80;20888;-58
2021/07/09 05:07:42;;;;;;;5.33;3.20;;;;;;;24.97;67.82;101492.77;1743114;80;20998;-58
2021/07/09 05:10:10;;;;;;;5.45;3.20;;;;;;;24.98;67.39;101491.28;1742560;80;21163;-59
2021/07/09 05:12:37;;;;;;;7.92;2.90;;;;;;;25.03;67.33;101489.50;1748307;80;20988;-58
2021/07/09 05:15:05;;;;;;;10.95;3.30;;;;;;;25.13;67.13;101504.67;1750684;80;21090;-59
2021/07/09 05:17:32;;;;;;;6.80;3.37;;;;;;;25.20;66.32;101500.91;1748776;80;20909;-59
2021/07/09 05:19:59;;;;;;;7.50;3.30;;;;;;;25.23;66.14;101503.39;1704115;82;21408;-59
2021/07/09 05:22:28;;;;;;;10.08;3.67;;;;;;;25.26;66.71;101502.63;1752522;79;21552;-59
2021/07/09 05:24:55;;;;;;;5.37;3.45;;;;;;;25.28;66.84;101501.11;1755151;80;21010;-59
2021/07/09 05:27:22;;;;;;;11.93;3.70;;;;;;;25.30;65.57;101504.59;1754400;79;21060;-59
2021/07/09 05:29:49;;;;;;;8.90;3.75;;;;;;;25.29;65.11;101505.59;1703999;82;20976;-58
2021/07/09 05:32:25;;;;;;;7.10;3.55;;;;;;;25.27;66.00;101500.25;1757528;79;20893;-59
2021/07/09 05:34:53;;;;;;;7.83;4.17;;;;;;;25.29;65.53;101505.59;1762191;79;20917;-59
2021/07/09 05:37:19;;;;;;;9.50;3.37;;;;;;;25.27;65.46;101513.98;1756893;79;21421;-58
2021/07/09 05:39:47;;;;;;;10.70;3.70;;;;;;;25.28;65.20;101505.23;1704158;82;21707;-59
2021/07/09 05:42:14;;;;;;;7.67;3.12;;;;;;;25.30;65.73;101512.82;1710688;82;21008;-59
2021/07/09 05:44:41;;;;;;;8.73;3.30;;;;;;;25.38;63.31;101521.28;1694030;83;21508;-59
2021/07/09 05:47:08;;;;;;;6.75;3.62;;;;;;;25.41;62.53;101521.50;1693809;82;21439;-58
2021/07/09 05:49:35;;;;;;;10.28;3.80;;;;;;;25.43;62.46;101510.77;1686552;83;21089;-59
2021/07/09 05:52:03;;;;;;;8.43;3.92;;;;;;;25.48;62.47;101515.91;1704301;82;21604;-60
2021/07/09 05:54:31;;;;;;;8.45;4.25;;;;;;;25.56;61.77;101512.50;1704268;82;21056;-58
2021/07/09 05:56:58;;;;;;;9.45;3.58;;;;;;;25.64;61.06;101525.52;1691671;83;21501;-60
2021/07/09 05:59:24;;;;;;;10.03;3.60;;;;;;;25.68;60.11;101516.90;1757513;80;20946;-58
2021/07/09 06:01:51;;;;;;;19.17;4.35;;;;;;;25.68;60.42;101507.28;1753831;79;21028;-59
2021/07/09 06:04:19;;;;;;;9.15;3.65;;;;;;;25.73;60.95;101516.50;1752745;79;21756;-59
2021/07/09 06:06:48;;;;;;;9.80;3.37;;;;;;;25.82;58.96;101517.57;1752578;79;20932;-59
2021/07/09 06:09:15;;;;;;;10.58;3.50;;;;;;;25.85;57.89;101517.30;1748351;79;21092;-59
2021/07/09 06:11:43;;;;;;;8.60;3.45;;;;;;;25.85;57.76;101524.16;1753028;79;20992;-59
2021/07/09 06:14:10;;;;;;;7.60;3.52;;;;;;;25.88;56.87;101522.02;1749902;79;21648;-59
2021/07/09 06:16:37;;;;;;;8.70;3.58;;;;;;;25.91;57.23;101512.63;1689420;82;21399;-59
2021/07/09 06:19:03;;;;;;;9.60;3.22;;;;;;;25.98;56.61;101514.33;1732691;81;21422;-59
2021/07/09 06:21:30;;;;;;;9.00;3.17;;;;;;;26.06;56.12;101502.66;1729118;81;21718;-59
2021/07/09 06:23:56;;;;;;;6.90;3.10;;;;;;;26.11;54.37;101505.85;1733768;80;21016;-59
2021/07/09 06:26:23;;;;;;;6.03;3.25;;;;;;;26.14;53.85;101522.06;1729679;81;21151;-60
2021/07/09 06:28:50;;;;;;;10.70;3.45;;;;;;;26.14;53.96;101511.95;1730821;81;21915;-60
2021/07/09 06:31:17;;;;;;;11.93;3.90;;;;;;;26.18;54.38;101500.19;1729055;81;21056;-60
2021/07/09 06:33:44;;;;;;;8.38;3.40;;;;;;;26.23;54.16;101497.92;1731519;81;20941;-60
2021/07/09 06:36:12;;;;;;;14.23;3.62;;;;;;;26.29;54.15;101503.34;1732430;81;21035;-60
2021/07/09 06:38:39;;;;;;;6.45;3.22;;;;;;;26.38;53.96;101508.52;1690828;83;21389;-58
2021/07/09 06:41:07;;;;;;;8.48;3.80;;;;;;;26.44;52.55;101505.23;1690460;82;21978;-58
2021/07/09 06:43:34;;;;;;;11.28;3.72;;;;;;;26.45;52.35;101511.94;1733073;81;20996;-59
2021/07/09 06:46:00;;;;;;;10.23;4.42;;;;;;;26.47;53.05;101500.82;1730969;80;21004;-59
2021/07/09 06:48:27;;;;;;;16.70;3.95;;;;;;;26.52;52.86;101504.02;1690890;83;21107;-59
2021/07/09 06:50:53;;;;;;;7.67;3.60;;;;;;;26.54;53.21;101513.51;1718817;81;21119;-59
2021/07/09 06:53:20;;;;;;;8.48;3.45;;;;;;;26.54;52.84;101512.98;1720009;81;21575;-59
2021/07/09 06:55:46;;;;;;;8.53;3.50;;;;;;;26.53;52.57;101505.75;1714958;81;20949;-59
2021/07/09 06:58:13;;;;;;;12.98;3.98;;;;;;;26.52;52.43;101516.39;1690290;83;21321;-59
2021/07/09 07:00:39;;;;;;;10.75;3.70;;;;;;;26.52;52.82;101506.77;1720254;81;21584;-58
2021/07/09 07:03:09;;;;;;;10.90;3.60;;;;;;;26.53;51.11;101513.14;1721436;81;21390;-60
2021/07/09 07:05:35;;;;;;;7.05;3.00;;;;;;;26.53;51.20;101518.13;1688077;83;21685;-60
2021/07/09 07:08:14;;;;;;;7.30;3.52;;;;;;;26.54;52.07;101512.98;1732798;81;21009;-58
2021/07/09 07:10:41;;;;;;;8.73;3.70;;;;;;;26.63;51.50;101512.65;1730620;81;21517;-59
2021/07/09 07:13:08;;;;;;;8.33;3.22;;;;;;;26.72;52.10;101505.44;1726810;81;21025;-59
2021/07/09 07:15:35;;;;;;;8.68;3.33;;;;;;;26.81;50.97;101505.95;1743339;80;21389;-59
2021/07/09 07:18:02;;;;;;;9.40;3.95;;;;;;;26.87;50.84;101506.80;1760982;79;21697;-60
2021/07/09 07:20:29;;;;;;;9.93;3.27;;;;;;;26.91;50.68;101507.89;1717455;81;21040;-59
2021/07/09 07:22:56;;;;;;;4.60;3.37;;;;;;;26.91;50.20;101503.77;1717647;81;21029;-60
2021/07/09 07:25:23;;;;;;;12.60;3.70;;;;;;;26.91;50.26;101509.27;1697022;82;21356;-61
2021/07/09 07:27:50;;;;;;;7.22;3.10;;;;;;;26.94;50.00;101497.45;1764180;79;21064;-61
2021/07/09 07:30:21;;;;;;;12.98;3.02;;;;;;;26.97;50.03;101503.18;1717973;81;20899;-61
2021/07/09 07:32:48;;;;;;;8.23;3.50;;;;;;;27.07;48.75;101508.69;1691555;83;21057;-61
2021/07/09 07:35:17;;;;;;;8.13;3.05;;;;;;;27.14;47.90;101503.84;1695639;82;21339;-61
2021/07/09 07:37:44;;;;;;;5.97;3.40;;;;;;;27.21;48.43;101512.40;1700600;82;21092;-61
2021/07/09 07:40:12;;;;;;;7.45;3.27;;;;;;;27.25;48.15;101516.59;1721626;81;21415;-61
2021/07/09 07:42:39;;;;;;;7.97;3.25;;;;;;;27.28;48.95;101503.02;1722662;81;21633;-61
2021/07/09 07:45:09;;;;;;;6.10;2.80;;;;;;;27.34;48.40;101498.34;1688590;82;21147;-60
2021/07/09 07:47:36;;;;;;;13.30;3.37;;;;;;;27.40;46.62;101499.12;1764550;79;20964;-60
2021/07/09 07:50:03;;;;;;;4.05;3.10;;;;;;;27.44;46.91;101499.70;1750280;80;21095;-60
2021/07/09 07:52:31;;;;;;;11.25;3.47;;;;;;;27.53;46.46;101496.61;1766702;79;21552;-60
2021/07/09 07:54:58;;;;;;;5.83;2.98;;;;;;;27.59;46.51;101494.64;1764736;79;21125;-60
2021/07/09 07:57:26;;;;;;;8.88;3.00;;;;;;;27.65;46.16;101495.94;1763224;79;21179;-60
2021/07/09 07:59:53;;;;;;;8.10;3.40;;;;;;;27.67;46.64;101490.62;1761766;79;21509;-59
2021/07/09 08:02:19;;;;;;;4.90;3.02;;;;;;;27.76;46.26;101488.01;1759638;79;21829;-60
2021/07/09 08:04:47;;;;;;;9.28;3.10;;;;;;;27.77;45.31;101487.84;1762894;79;21467;-60
2021/07/09 08:07:15;;;;;;;4.22;3.30;;;;;;;27.81;45.04;101492.55;1764427;79;22395;-60
2021/07/09 08:09:48;;;;;;;9.50;3.00;;;;;;;27.84;44.90;101489.49;1762010;79;20977;-60
2021/07/09 08:12:16;;;;;;;5.62;2.98;;;;;;;27.80;44.72;101490.29;1747246;79;20960;-60
2021/07/09 08:14:45;;;;;;;7.30;3.40;;;;;;;27.82;45.13;101487.40;1764203;79;20933;-59
2021/07/09 08:17:13;;;;;;;9.93;3.70;;;;;;;27.83;46.63;101491.89;1761963;79;21361;-64
2021/07/09 08:19:40;;;;;;;11.48;4.00;;;;;;;27.88;47.65;101496.44;1765025;79;21077;-65
2021/07/09 08:22:07;;;;;;;8.98;4.00;;;;;;;27.94;47.36;101493.06;1767955;79;21052;-66
2021/07/09 08:24:33;;;;;;;5.78;3.10;;;;;;;27.95;48.15;101495.33;1771097;79;22868;-67
2021/07/09 08:27:00;;;;;;;8.58;3.30;;;;;;;27.94;46.45;101494.45;1771568;79;21013;-65
2021/07/09 08:29:27;;;;;;;12.15;3.58;;;;;;;27.95;45.78;101481.03;1720658;81;21014;-61
2021/07/09 08:31:55;;;;;;;7.30;3.12;;;;;;;28.03;44.55;101478.41;1714728;82;21127;-65
2021/07/09 08:34:22;;;;;;;11.68;2.95;;;;;;;28.14;43.12;101480.59;1771734;79;21018;-65
2021/07/09 08:36:50;;;;;;;10.18;3.50;;;;;;;28.22;42.09;101486.27;1774948;79;20882;-66
2021/07/09 08:39:17;;;;;;;13.80;3.10;;;;;;;28.24;41.94;101478.70;1764756;79;21006;-64
2021/07/09 08:41:46;;;;;;;9.78;3.20;;;;;;;28.32;42.04;101476.56;1766394;79;21254;-66
2021/07/09 08:44:14;;;;;;;10.08;3.25;;;;;;;28.45;41.42;101473.44;1772772;79;21571;-63
2021/07/09 08:46:41;;;;;;;7.45;3.40;;;;;;;28.51;40.95;101475.58;1769427;79;20923;-65
2021/07/09 08:49:09;;;;;;;6.75;3.45;;;;;;;28.51;41.06;101464.55;1724737;81;21036;-63
2021/07/09 08:51:35;;;;;;;9.48;3.20;;;;;;;28.53;41.40;101466.63;1706545;81;21048;-64
2021/07/09 08:54:02;;;;;;;8.08;3.20;;;;;;;28.57;41.71;101479.08;1726390;81;20981;-64
2021/07/09 08:56:28;;;;;;;9.13;3.27;;;;;;;28.58;42.43;101466.17;1704852;82;21355;-64
2021/07/09 08:58:54;;;;;;;9.88;3.37;;;;;;;28.58;42.97;101471.16;1701262;82;21039;-64
2021/07/09 09:01:23;;;;;;;10.35;3.27;;;;;;;28.67;43.60;101468.52;1763777;79;20933;-64
2021/07/09 09:04:04;;;;;;;5.08;3.05;;;;;;;28.72;43.42;101471.66;1766582;79;21155;-63
2021/07/09 09:06:31;;;;;;;11.10;3.50;;;;;;;28.72;43.99;101464.77;1755474;79;21034;-64
2021/07/09 09:08:58;;;;;;;8.18;3.30;;;;;;;28.72;43.77;101470.28;1772233;79;21474;-64
2021/07/09 09:11:32;;;;;;;11.78;3.58;;;;;;;28.68;44.48;101468.34;1766570;79;21503;-64
2021/07/09 09:14:00;;;;;;;7.62;3.10;;;;;;;28.67;43.94;101464.37;1766183;79;20949;-64
2021/07/09 09:16:29;;;;;;;4.65;3.62;;;;;;;28.68;43.13;101470.25;1676052;82;20969;-63
2021/07/09 09:18:57;;;;;;;8.00;2.72;;;;;;;28.69;42.69;101467.84;1698190;82;21028;-65
2021/07/09 09:21:25;;;;;;;4.20;2.87;;;;;;;28.73;41.62;101476.16;1717754;81;21068;-63
2021/07/09 09:23:54;;;;;;;7.20;2.85;;;;;;;28.72;41.01;101467.52;1696018;82;20887;-65
2021/07/09 09:26:45;;;;;;;7.33;3.55;;;;;;;28.77;40.89;101466.53;1719660;81;21501;-58
2021/07/09 09:29:17;;;;;;;4.00;3.30;;;;;;;28.88;39.99;101464.09;1763619;79;20975;-64
2021/07/09 09:31:44;;;;;;;4.72;2.83;;;;;;;28.95;39.30;101469.85;1766342;79;21081;-62
2021/07/09 09:34:12;;;;;;;5.65;2.40;;;;;;;29.01;39.83;101464.58;1762943;79;21744;-63
2021/07/09 09:36:39;;;;;;;7.92;2.33;;;;;;;29.08;37.96;101462.55;1765477;79;21099;-63
2021/07/09 09:39:16;;;;;;;9.08;2.40;;;;;;;29.12;37.11;101460.70;1743044;79;20966;-63
2021/07/09 09:41:43;;;;;;;3.42;2.30;;;;;;;29.18;37.25;101460.58;1764508;79;21014;-58
2021/07/09 09:44:13;;;;;;;7.22;2.15;;;;;;;29.25;37.73;101469.07;1768017;79;21370;-62
2021/07/09 09:46:40;;;;;;;5.78;2.25;;;;;;;29.33;36.19;101469.66;1739450;79;21128;-63
2021/07/09 09:49:12;;;;;;;5.12;2.20;;;;;;;29.34;36.19;101468.13;1765796;79;21010;-63
2021/07/09 09:51:40;;;;;;;6.00;2.12;;;;;;;29.35;35.79;101474.00;1766018;79;21467;-63
2021/07/09 09:54:11;;;;;;;3.37;2.15;;;;;;;29.37;35.62;101480.23;1764153;79;21426;-63
2021/07/09 09:56:46;;;;;;;2.98;2.20;;;;;;;29.43;35.42;101474.62;1763021;79;21393;-64
2021/07/09 09:59:24;;;;;;;3.05;2.22;;;;;;;29.48;35.44;101464.44;1766603;79;20981;-65
2021/07/09 10:02:02;;;;;;;7.03;2.20;;;;;;;29.50;35.01;101465.14;1770278;79;21021;-63
2021/07/09 10:04:29;;;;;;;3.42;1.95;;;;;;;29.52;34.49;101461.73;1762439;79;21471;-59
2021/07/09 10:06:57;;;;;;;5.85;2.20;;;;;;;29.55;34.70;101460.03;1763045;79;21077;-58
2021/07/09 10:09:25;;;;;;;4.35;2.00;;;;;;;29.60;34.37;101450.73;1715986;81;21087;-57
2021/07/09 10:11:52;;;;;;;6.15;1.95;;;;;;;29.61;34.41;101453.84;1766824;79;21165;-59
2021/07/09 10:14:22;;;;;;;5.15;1.90;;;;;;;29.60;34.94;101446.59;1761481;79;21043;-57
2021/07/09 10:16:51;;;;;;;2.25;2.02;;;;;;;29.63;34.94;101446.78;1773934;78;21368;-65
2021/07/09 10:19:23;;;;;;;3.33;2.40;;;;;;;29.65;35.01;101440.05;1777070;78;21873;-64
2021/07/09 10:21:50;;;;;;;2.90;2.30;;;;;;;29.65;34.38;101441.96;1759272;78;21589;-66
2021/07/09 10:24:18;;;;;;;17.65;2.92;;;;;;;29.63;34.04;101443.48;1739429;80;21874;-61
2021/07/09 10:26:52;;;;;;;11.85;3.55;;;;;;;29.56;33.96;101432.75;1732161;80;21478;-64
2021/07/09 10:29:25;;;;;;;7.72;2.85;;;;;;;29.49;34.05;101430.27;1781476;78;21442;-59
2021/07/09 10:31:53;;;;;;;9.30;2.72;;;;;;;29.49;34.33;101427.50;1703820;82;21112;-62
2021/07/09 10:34:30;;;;;;;8.60;2.60;;;;;;;29.54;34.42;101436.19;1705617;82;21017;-60
2021/07/09 10:37:01;;;;;;;3.00;2.70;;;;;;;29.57;34.34;101434.48;1776603;78;21449;-61
2021/07/09 10:39:42;;;;;;;5.62;2.77;;;;;;;29.55;34.15;101436.55;1782239;78;20973;-60
2021/07/09 10:42:27;;;;;;;9.78;2.80;;;;;;;29.53;33.58;101438.61;1780856;78;20992;-59
2021/07/09 10:45:15;;;;;;;;;;;;;;;29.45;33.51;101430.59;1780462;78;21320;-61
2021/07/09 10:47:53;;;;;;;7.50;2.47;;;;;;;29.42;33.69;101434.22;1780357;78;21104;-61
2021/07/09 10:50:47;;;;;;;4.22;2.20;;;;;;;29.41;34.51;101423.67;1779651;78;22106;-60
2021/07/09 10:53:23;;;;;;;8.65;2.70;;;;;;;29.42;33.95;101426.78;1773461;78;20965;-64
2021/07/09 10:55:59;;;;;;;4.25;2.60;;;;;;;29.39;33.74;101421.55;1775864;78;20973;-65
2021/07/09 10:58:43;;;;;;;4.28;2.90;;;;;;;29.37;34.16;101416.71;1776586;78;21455;-60
2021/07/09 11:01:16;;;;;;;15.08;2.83;;;;;;;29.35;34.25;101413.25;1776498;78;21068;-59
2021/07/09 11:03:53;;;;;;;8.48;2.30;;;;;;;29.39;34.49;101411.89;1776936;78;21077;-60
2021/07/09 11:06:36;;;;;;;7.47;2.60;;;;;;;29.46;34.54;101414.91;1735392;80;20975;-64
2021/07/09 11:09:05;;;;;;;7.25;2.42;;;;;;;29.52;34.63;101409.25;1710836;82;21591;-60
2021/07/09 11:11:47;;;;;;;3.25;2.45;;;;;;;29.58;34.73;101407.20;1722031;81;22618;-60
2021/07/09 11:14:23;;;;;;;8.83;2.52;;;;;;;29.59;33.69;101401.50;1736762;80;22159;-59
2021/07/09 11:17:00;;;;;;;4.58;2.50;;;;;;;29.54;33.95;101392.00;1705960;81;20923;-59
2021/07/09 11:19:33;;;;;;;9.78;2.87;;;;;;;29.52;33.31;101397.67;1731022;81;21732;-59
2021/07/09 11:24:56;;;;;;;9.25;2.67;;;;;;;29.39;33.87;101392.56;1724112;80;21005;-64
2021/07/09 11:27:25;;;;;;;6.70;2.77;;;;;;;29.38;33.21;101390.83;1733977;81;21615;-59
2021/07/09 11:29:57;;;;;;;7.62;2.60;;;;;;;29.37;33.56;101382.19;1732287;81;21964;-58